createdAt,value
2023-04-03T00:01:06.509Z,102318.91
2023-04-03T00:03:34.748Z,102323.94
2023-04-03T00:06:02.903Z,102327.22
2023-04-03T00:08:31.852Z,102333.16
2023-04-03T00:11:00.800Z,102324.22
2023-04-03T00:13:28.472Z,102334.44
2023-04-03T00:15:56.264Z,102335.13
2023-04-03T00:18:24.208Z,102328.13
2023-04-03T00:20:51.947Z,102327.91
2023-04-03T00:23:19.602Z,102326.91
2023-04-03T00:25:47.387Z,102326.81
2023-04-03T00:28:16.363Z,102335.25
2023-04-03T00:30:44.040Z,102332.41
2023-04-03T00:33:13.553Z,102334.81
2023-04-03T00:35:41.598Z,102333.69
2023-04-03T00:38:10.475Z,102340.63
2023-04-03T00:40:40.762Z,102337.81
2023-04-03T00:43:14.241Z,102340.31
2023-04-03T00:45:45.316Z,102339.09
2023-04-03T00:48:17.785Z,102344.88
2023-04-03T00:50:47.140Z,102352.59
2023-04-03T00:53:20.047Z,102351.59
2023-04-03T00:55:49.796Z,102346.88
2023-04-03T00:58:19.661Z,102351.97
2023-04-03T01:00:52.690Z,102343.03
2023-04-03T01:03:21.347Z,102349.03
2023-04-03T01:05:49.024Z,102347.25
2023-04-03T01:08:16.635Z,102350.53
2023-04-03T01:10:44.637Z,102345.09
2023-04-03T01:13:24.936Z,102349.31
2023-04-03T01:15:54.398Z,102357.84
2023-04-03T01:18:23.689Z,102352.50
2023-04-03T01:21:30.746Z,102361.00
2023-04-03T01:24:07.259Z,102362.72
2023-04-03T01:26:36.637Z,102368.72
2023-04-03T01:29:04.942Z,102363.31
2023-04-03T01:31:45.654Z,102364.88
2023-04-03T01:34:13.322Z,102362.97
2023-04-03T01:36:41.019Z,102367.31
2023-04-03T01:39:09.065Z,102368.88
2023-04-03T01:41:36.773Z,102366.06
2023-04-03T01:44:12.753Z,102366.84
2023-04-03T01:46:40.369Z,102361.41
2023-04-03T01:49:09.325Z,102364.84
2023-04-03T01:51:36.979Z,102373.44
2023-04-03T01:54:05.297Z,102375.94
2023-04-03T01:56:33.114Z,102364.50
2023-04-03T01:59:00.829Z,102365.41
2023-04-03T02:01:28.601Z,102373.09
2023-04-03T02:03:56.442Z,102372.31
2023-04-03T02:06:26.256Z,102367.88
2023-04-03T02:08:54.301Z,102373.09
2023-04-03T02:11:22.200Z,102373.09
2023-04-03T02:13:49.846Z,102369.59
2023-04-03T02:16:17.455Z,102377.44
2023-04-03T02:18:45.132Z,102379.91
2023-04-03T02:21:12.991Z,102382.53
2023-04-03T02:23:42.008Z,102375.41
2023-04-03T02:26:12.017Z,102380.41
2023-04-03T02:28:40.672Z,102382.06
2023-04-03T02:31:09.108Z,102377.69
2023-04-03T02:33:38.008Z,102388.00
2023-04-03T02:36:09.546Z,102394.81
2023-04-03T02:38:38.689Z,102390.25
2023-04-03T02:41:10.450Z,102390.94
2023-04-03T02:43:38.638Z,102391.72
2023-04-03T02:46:07.669Z,102396.06
2023-04-03T02:48:35.436Z,102396.72
2023-04-03T02:51:03.098Z,102401.03
2023-04-03T02:53:30.771Z,102395.72
2023-04-03T02:55:59.582Z,102399.91
2023-04-03T02:58:28.576Z,102400.69
2023-04-03T03:00:58.714Z,102407.59
2023-04-03T03:03:26.481Z,102397.97
2023-04-03T03:06:03.122Z,102405.69
2023-04-03T03:08:30.792Z,102403.88
2023-04-03T03:10:58.435Z,102406.38
2023-04-03T03:13:26.753Z,102415.91
2023-04-03T03:15:55.793Z,102409.66
2023-04-03T03:18:23.467Z,102411.22
2023-04-03T03:20:53.419Z,102408.50
2023-04-03T03:23:21.952Z,102408.31
2023-04-03T03:25:49.691Z,102413.41
2023-04-03T03:28:17.438Z,102414.19
2023-04-03T03:30:45.304Z,102411.47
2023-04-03T03:33:14.255Z,102420.09
2023-04-03T03:35:42.823Z,102414.75
2023-04-03T03:38:10.546Z,102421.66
2023-04-03T03:40:38.695Z,102421.66
2023-04-03T03:43:07.011Z,102420.63
2023-04-03T03:45:34.970Z,102417.91
2023-04-03T03:48:03.431Z,102415.19
2023-04-03T03:50:33.096Z,102417.72
2023-04-03T03:53:01.025Z,102415.88
2023-04-03T03:55:28.920Z,102425.28
2023-04-03T03:57:58.532Z,102413.84
2023-04-03T04:00:26.839Z,102425.84
2023-04-03T04:02:59.316Z,102427.53
2023-04-03T04:05:27.979Z,102424.94
2023-04-03T04:07:57.242Z,102415.28
2023-04-03T04:12:09.301Z,102420.19
2023-04-03T04:14:42.579Z,102434.88
2023-04-03T04:17:15.268Z,102442.69
2023-04-03T04:19:43.769Z,102439.06
2023-04-03T04:22:11.800Z,102432.84
2023-04-03T04:24:42.857Z,102444.28
2023-04-03T04:27:16.660Z,102451.19
2023-04-03T04:29:44.493Z,102443.38
2023-04-03T04:32:12.145Z,102461.50
2023-04-03T04:34:43.228Z,102456.28
2023-04-03T04:37:11.637Z,102461.38
2023-04-03T04:39:42.674Z,102461.50
2023-04-03T04:42:16.008Z,102472.56
2023-04-03T04:44:45.865Z,102464.75
2023-04-03T04:47:15.620Z,102467.16
2023-04-03T04:49:43.682Z,102463.63
2023-04-03T04:52:12.076Z,102473.16
2023-04-03T04:54:41.402Z,102469.53
2023-04-03T04:57:09.174Z,102466.81
2023-04-03T04:59:38.312Z,102478.22
2023-04-03T05:02:08.265Z,102471.22
2023-04-03T05:04:37.010Z,102473.84
2023-04-03T05:07:10.231Z,102476.44
2023-04-03T05:09:39.292Z,102476.53
2023-04-03T05:12:07.177Z,102480.06
2023-04-03T05:14:43.028Z,102485.16
2023-04-03T05:17:12.633Z,102486.03
2023-04-03T05:19:48.192Z,102480.72
2023-04-03T05:22:16.568Z,102487.06
2023-04-03T05:24:44.266Z,102479.25
2023-04-03T05:27:12.034Z,102481.97
2023-04-03T05:29:45.529Z,102481.97
2023-04-03T05:32:18.031Z,102478.59
2023-04-03T05:34:50.006Z,102479.50
2023-04-03T05:37:20.149Z,102481.31
2023-04-03T05:39:48.224Z,102484.16
2023-04-03T05:42:17.057Z,102481.66
2023-04-03T05:44:48.178Z,102485.53
2023-04-03T05:47:15.858Z,102484.72
2023-04-03T05:49:43.594Z,102482.38
2023-04-03T05:52:22.305Z,102489.50
2023-04-03T05:54:50.464Z,102487.94
2023-04-03T05:57:24.923Z,102488.13
2023-04-03T05:59:54.551Z,102488.38
2023-04-03T06:02:25.513Z,102497.22
2023-04-03T06:04:53.766Z,102490.44
2023-04-03T06:07:23.617Z,102487.16
2023-04-03T06:09:52.858Z,102490.88
2023-04-03T06:12:24.629Z,102494.50
2023-04-03T06:14:55.158Z,102499.19
2023-04-03T06:17:23.780Z,102501.22
2023-04-03T06:19:52.338Z,102504.94
2023-04-03T06:22:20.859Z,102514.94
2023-04-03T06:24:48.752Z,102511.78
2023-04-03T06:27:16.631Z,102521.75
2023-04-03T06:29:46.319Z,102518.59
2023-04-03T06:32:16.343Z,102512.00
2023-04-03T06:34:44.054Z,102514.97
2023-04-03T06:37:12.883Z,102514.38
2023-04-03T06:39:40.987Z,102515.63
2023-04-03T06:42:08.590Z,102522.09
2023-04-03T06:44:41.310Z,102521.63
2023-04-03T06:47:11.291Z,102521.84
2023-04-03T06:49:40.241Z,102523.09
2023-04-03T06:52:08.012Z,102520.84
2023-04-03T06:54:37.725Z,102519.47
2023-04-03T06:57:05.853Z,102526.72
2023-04-03T06:59:33.475Z,102527.06
2023-04-03T07:02:01.129Z,102537.00
2023-04-03T07:04:28.768Z,102541.88
2023-04-03T07:06:57.837Z,102538.81
2023-04-03T07:09:25.622Z,102533.22
2023-04-03T07:11:53.291Z,102539.81
2023-04-03T07:14:22.131Z,102541.25
2023-04-03T07:16:49.735Z,102544.50
2023-04-03T07:19:19.117Z,102540.03
2023-04-03T07:21:49.301Z,102539.19
2023-04-03T07:24:18.875Z,102541.75
2023-04-03T07:26:47.272Z,102545.91
2023-04-03T07:29:15.689Z,102553.47
2023-04-03T07:31:43.507Z,102553.19
2023-04-03T07:34:11.232Z,102547.47
2023-04-03T07:36:39.789Z,102564.38
2023-04-03T07:39:08.231Z,102560.34
2023-04-03T07:41:37.931Z,102558.28
2023-04-03T07:44:06.463Z,102564.78
2023-04-03T07:46:34.319Z,102561.81
2023-04-03T07:49:02.463Z,102563.31
2023-04-03T07:51:30.857Z,102563.03
2023-04-03T07:53:58.802Z,102564.53
2023-04-03T07:56:27.080Z,102560.81
2023-04-03T07:58:56.222Z,102553.53
2023-04-03T08:01:24.511Z,102554.47
2023-04-03T08:03:52.856Z,102554.41
2023-04-03T08:06:29.286Z,102550.97
2023-04-03T08:09:01.586Z,102548.31
2023-04-03T08:11:33.177Z,102547.25
2023-04-03T08:14:03.463Z,102556.88
2023-04-03T08:16:31.106Z,102549.97
2023-04-03T08:18:58.861Z,102547.34
2023-04-03T08:21:27.088Z,102554.44
2023-04-03T08:23:54.726Z,102551.06
2023-04-03T08:26:23.273Z,102552.34
2023-04-03T08:28:51.262Z,102553.38
2023-04-03T08:31:21.586Z,102553.34
2023-04-03T08:33:50.214Z,102562.28
2023-04-03T08:36:21.287Z,102552.13
2023-04-03T08:38:49.803Z,102563.53
2023-04-03T08:41:31.440Z,102553.81
2023-04-03T08:44:06.499Z,102545.75
2023-04-03T08:46:50.172Z,102551.78
2023-04-03T08:49:27.496Z,102548.16
2023-04-03T08:51:56.926Z,102550.69
2023-04-03T08:54:36.785Z,102548.97
2023-04-03T08:57:08.341Z,102550.59
2023-04-03T08:59:40.872Z,102551.84
2023-04-03T09:02:27.754Z,102548.47
2023-04-03T09:04:56.863Z,102548.47
2023-04-03T09:07:35.420Z,102557.19
2023-04-03T09:10:04.179Z,102564.00
2023-04-03T09:12:40.302Z,102563.09
2023-04-03T09:15:22.203Z,102555.56
2023-04-03T09:18:04.877Z,102559.34
2023-04-03T09:20:43.184Z,102551.81
2023-04-03T09:23:24.889Z,102552.13
2023-04-03T09:25:58.779Z,102557.47
2023-04-03T09:28:27.844Z,102557.66
2023-04-03T09:30:57.411Z,102552.41
2023-04-03T09:33:32.786Z,102558.72
2023-04-03T09:36:04.524Z,102556.34
2023-04-03T09:38:35.213Z,102555.94
2023-04-03T09:41:09.208Z,102553.50
2023-04-03T09:43:41.199Z,102546.50
2023-04-03T09:46:24.095Z,102546.75
2023-04-03T09:49:08.283Z,102541.81
2023-04-03T09:51:38.793Z,102545.59
2023-04-03T09:54:35.578Z,102540.66
2023-04-03T09:57:09.244Z,102540.91
2023-04-03T09:59:37.395Z,102543.69
2023-04-03T10:02:22.912Z,102539.56
2023-04-03T10:05:06.215Z,102543.91
2023-04-03T10:07:40.376Z,102535.88
2023-04-03T10:10:21.047Z,102540.13
2023-04-03T10:12:50.427Z,102532.78
2023-04-03T10:15:21.126Z,102541.81
2023-04-03T10:17:56.256Z,102543.78
2023-04-03T10:20:35.208Z,102528.19
2023-04-03T10:23:16.946Z,102529.16
2023-04-03T10:25:56.797Z,102526.53
2023-04-03T10:28:31.242Z,102514.78
2023-04-03T10:31:07.518Z,102509.31
2023-04-03T10:33:53.642Z,102514.53
2023-04-03T10:36:33.965Z,102516.25
2023-04-03T10:39:11.095Z,102508.25
2023-04-03T10:41:55.789Z,102517.50
2023-04-03T10:44:39.361Z,102518.84
2023-04-03T10:47:19.464Z,102512.28
2023-04-03T10:49:59.953Z,102513.88
2023-04-03T10:52:39.340Z,102513.06
2023-04-03T10:55:26.375Z,102511.56
2023-04-03T10:57:56.452Z,102500.84
2023-04-03T11:00:33.410Z,102504.97
2023-04-03T11:03:03.283Z,102499.91
2023-04-03T11:05:40.276Z,102488.06
2023-04-03T11:08:18.371Z,102487.25
2023-04-03T11:10:50.626Z,102480.88
2023-04-03T11:13:24.053Z,102486.56
2023-04-03T11:15:54.839Z,102476.38
2023-04-03T11:18:28.912Z,102473.22
2023-04-03T11:21:04.983Z,102470.75
2023-04-03T11:23:48.660Z,102465.25
2023-04-03T11:26:19.987Z,102469.56
2023-04-03T11:28:48.015Z,102463.16
2023-04-03T11:31:28.435Z,102465.41
2023-04-03T11:34:05.179Z,102474.72
2023-04-03T11:36:37.185Z,102468.31
2023-04-03T11:39:22.954Z,102465.13
2023-04-03T11:41:53.429Z,102467.06
2023-04-03T11:44:35.454Z,102468.16
2023-04-03T11:47:03.743Z,102467.69
2023-04-03T11:50:00.643Z,102464.13
2023-04-03T11:53:00.744Z,102459.16
2023-04-03T11:55:53.767Z,102453.75
2023-04-03T11:58:25.309Z,102447.13
2023-04-03T12:01:09.685Z,102444.75
2023-04-03T12:04:06.841Z,102444.78
2023-04-03T12:07:05.567Z,102440.66
2023-04-03T12:09:58.610Z,102440.06
2023-04-03T12:12:32.250Z,102437.28
2023-04-03T12:15:26.485Z,102432.03
2023-04-03T12:17:57.421Z,102430.66
2023-04-03T12:20:57.283Z,102434.56
2023-04-03T12:23:32.092Z,102431.75
2023-04-03T12:26:07.557Z,102435.06
2023-04-03T12:28:41.620Z,102429.50
2023-04-03T12:31:13.208Z,102432.22
2023-04-03T12:34:04.475Z,102425.53
2023-04-03T12:36:43.131Z,102423.53
2023-04-03T12:39:38.519Z,102418.75
2023-04-03T12:42:19.948Z,102410.06
2023-04-03T12:45:00.039Z,102414.47
2023-04-03T12:47:34.145Z,102419.00
2023-04-03T12:50:04.135Z,102414.16
2023-04-03T12:52:37.487Z,102412.94
2023-04-03T12:55:18.711Z,102410.19
2023-04-03T12:57:46.785Z,102410.66
2023-04-03T13:00:28.503Z,102404.00
2023-04-03T13:02:56.609Z,102406.53
2023-04-03T13:05:25.960Z,102407.81
2023-04-03T13:08:00.376Z,102408.97
2023-04-03T13:10:28.168Z,102414.72
2023-04-03T13:12:59.111Z,102407.88
2023-04-03T13:15:30.492Z,102401.34
2023-04-03T13:18:01.645Z,102410.09
2023-04-03T13:20:31.360Z,102409.59
2023-04-03T13:23:02.123Z,102401.38
2023-04-03T13:25:33.527Z,102395.00
2023-04-03T13:28:12.397Z,102387.38
2023-04-03T13:30:58.013Z,102401.53
2023-04-03T13:33:29.237Z,102392.38
2023-04-03T13:35:58.895Z,102391.09
2023-04-03T13:38:31.176Z,102394.91
2023-04-03T13:41:03.510Z,102386.50
2023-04-03T13:43:33.718Z,102387.13
2023-04-03T13:46:07.555Z,102391.88
2023-04-03T13:48:41.096Z,102387.63
2023-04-03T13:51:20.708Z,102379.63
2023-04-03T13:53:52.208Z,102386.25
2023-04-03T13:56:24.844Z,102388.84
2023-04-03T13:59:22.709Z,102382.28
2023-04-03T14:01:54.995Z,102383.69
2023-04-03T14:04:24.422Z,102377.88
2023-04-03T14:06:52.525Z,102373.91
2023-04-03T14:09:23.105Z,102383.78
2023-04-03T14:11:53.375Z,102383.44
2023-04-03T14:14:24.648Z,102380.00
2023-04-03T14:16:57.158Z,102378.47
2023-04-03T14:19:28.676Z,102368.59
2023-04-03T14:21:59.096Z,102372.50
2023-04-03T14:24:28.831Z,102374.00
2023-04-03T14:27:00.168Z,102378.13
2023-04-03T14:29:28.057Z,102366.97
2023-04-03T14:32:11.565Z,102371.81
2023-04-03T14:34:43.913Z,102375.72
2023-04-03T14:37:14.313Z,102364.00
2023-04-03T14:39:43.116Z,102366.38
2023-04-03T14:42:14.354Z,102366.16
2023-04-03T14:44:42.474Z,102362.63
2023-04-03T14:47:30.578Z,102353.53
2023-04-03T14:50:00.434Z,102361.84
2023-04-03T14:52:34.242Z,102354.50
2023-04-03T14:55:06.919Z,102359.38
2023-04-03T14:57:35.664Z,102346.56
2023-04-03T15:00:05.531Z,102352.34
2023-04-03T15:02:41.573Z,102336.06
2023-04-03T15:05:12.455Z,102342.25
2023-04-03T15:07:42.688Z,102339.88
2023-04-03T15:10:24.911Z,102336.44
2023-04-03T15:12:56.699Z,102343.09
2023-04-03T15:15:25.968Z,102341.84
2023-04-03T15:18:03.081Z,102338.78
2023-04-03T15:20:34.132Z,102345.91
2023-04-03T15:23:02.617Z,102337.22
2023-04-03T15:25:32.100Z,102334.38
2023-04-03T15:28:01.978Z,102345.56
2023-04-03T15:30:29.838Z,102343.50
2023-04-03T15:32:59.147Z,102347.59
2023-04-03T15:35:33.620Z,102341.06
2023-04-03T15:38:03.036Z,102342.44
2023-04-03T15:40:34.876Z,102348.09
2023-04-03T15:43:03.328Z,102346.81
2023-04-03T15:45:37.625Z,102347.34
2023-04-03T15:48:18.872Z,102345.22
2023-04-03T15:50:47.805Z,102345.84
2023-04-03T15:53:15.952Z,102350.84
2023-04-03T15:55:44.946Z,102346.38
2023-04-03T15:58:14.869Z,102345.34
2023-04-03T16:00:43.302Z,102344.59
2023-04-03T16:03:23.520Z,102341.00
2023-04-03T16:05:51.556Z,102337.25
2023-04-03T16:08:21.678Z,102341.50
2023-04-03T16:10:49.576Z,102339.63
2023-04-03T16:13:20.613Z,102348.19
2023-04-03T16:15:51.666Z,102335.50
2023-04-03T16:18:27.780Z,102353.63
2023-04-03T16:20:56.101Z,102344.41
2023-04-03T16:23:25.409Z,102345.91
2023-04-03T16:25:55.642Z,102348.31
2023-04-03T16:28:25.705Z,102349.81
2023-04-03T16:30:53.997Z,102346.09
2023-04-03T16:33:28.454Z,102354.59
2023-04-03T16:35:56.357Z,102351.56
2023-04-03T16:38:28.830Z,102352.84
2023-04-03T16:40:58.052Z,102354.28
2023-04-03T16:43:27.111Z,102351.41
2023-04-03T16:45:56.187Z,102354.63
2023-04-03T16:48:25.341Z,102349.16
2023-04-03T16:50:54.706Z,102353.44
2023-04-03T16:53:26.325Z,102357.50
2023-04-03T16:55:54.844Z,102352.69
2023-04-03T16:58:29.053Z,102360.38
2023-04-03T17:00:57.021Z,102361.72
2023-04-03T17:03:30.507Z,102351.81
2023-04-03T17:05:58.634Z,102353.44
2023-04-03T17:08:27.549Z,102354.66
2023-04-03T17:10:56.064Z,102366.63
2023-04-03T17:13:24.221Z,102355.75
2023-04-03T17:15:54.764Z,102361.72
2023-04-03T17:18:23.825Z,102359.72
2023-04-03T17:20:54.083Z,102366.53
2023-04-03T17:23:26.158Z,102360.97
2023-04-03T17:25:56.178Z,102358.19
2023-04-03T17:28:28.786Z,102356.28
2023-04-03T17:30:56.785Z,102361.25
2023-04-03T17:33:24.751Z,102363.78
2023-04-03T17:35:54.006Z,102373.28
2023-04-03T17:38:21.648Z,102373.91
2023-04-03T17:40:49.303Z,102374.47
2023-04-03T17:43:17.036Z,102368.00
2023-04-03T17:45:44.683Z,102364.34
2023-04-03T17:48:12.329Z,102359.69
2023-04-03T17:50:39.989Z,102363.00
2023-04-03T17:53:08.914Z,102358.34
2023-04-03T17:55:38.404Z,102356.34
2023-04-03T17:58:06.514Z,102351.69
2023-04-03T18:00:34.226Z,102353.19
2023-04-03T18:03:01.872Z,102352.22
2023-04-03T18:05:30.832Z,102363.47
2023-04-03T18:07:59.364Z,102361.50
2023-04-03T18:10:28.582Z,102364.91
2023-04-03T18:12:56.857Z,102361.22
2023-04-03T18:15:25.332Z,102362.81
2023-04-03T18:17:56.571Z,102367.84
2023-04-03T18:20:24.737Z,102366.72
2023-04-03T18:22:52.896Z,102376.13
2023-04-03T18:25:20.916Z,102373.34
2023-04-03T18:27:50.181Z,102372.22
2023-04-03T18:30:18.928Z,102370.19
2023-04-03T18:32:46.546Z,102370.84
2023-04-03T18:35:14.872Z,102382.06
2023-04-03T18:37:42.497Z,102381.91
2023-04-03T18:40:11.474Z,102373.75
2023-04-03T18:42:41.659Z,102370.00
2023-04-03T18:45:12.876Z,102375.06
2023-04-03T18:47:40.894Z,102374.91
2023-04-03T18:50:09.735Z,102373.84
2023-04-03T18:52:37.319Z,102379.84
2023-04-03T18:55:06.266Z,102390.22
2023-04-03T18:57:33.854Z,102374.19
2023-04-03T19:00:01.799Z,102382.00
2023-04-03T19:02:31.111Z,102389.81
2023-04-03T19:04:58.917Z,102382.59
2023-04-03T19:07:26.562Z,102391.22
2023-04-03T19:09:54.257Z,102388.44
2023-04-03T19:12:21.879Z,102390.97
2023-04-03T19:14:49.468Z,102386.41
2023-04-03T19:17:17.130Z,102389.69
2023-04-03T19:19:46.212Z,102393.88
2023-04-03T19:22:13.889Z,102388.41
2023-04-03T19:24:41.642Z,102385.59
2023-04-03T19:27:09.213Z,102389.72
2023-04-03T19:29:36.840Z,102390.38
2023-04-03T19:32:04.425Z,102394.50
2023-04-03T19:34:32.078Z,102388.91
2023-04-03T19:37:02.319Z,102389.56
2023-04-03T19:39:31.430Z,102391.84
2023-04-03T19:41:59.219Z,102393.31
2023-04-03T19:44:27.402Z,102384.22
2023-04-03T19:46:55.150Z,102385.69
2023-04-03T19:49:22.878Z,102395.94
2023-04-03T19:51:50.845Z,102394.78
2023-04-03T19:54:20.341Z,102397.97
2023-04-03T19:56:48.102Z,102398.47
2023-04-03T19:59:17.355Z,102396.38
2023-04-03T20:01:46.285Z,102389.97
2023-04-03T20:04:15.025Z,102394.06
2023-04-03T20:06:42.686Z,102392.00
2023-04-03T20:09:10.447Z,102381.22
2023-04-03T20:11:40.359Z,102390.56
2023-04-03T20:14:08.066Z,102381.44
2023-04-03T20:16:36.180Z,102379.38
2023-04-03T20:19:06.003Z,102382.56
2023-04-03T20:21:35.150Z,102375.97
2023-04-03T20:24:05.020Z,102374.81
2023-04-03T20:26:33.656Z,102378.78
2023-04-03T20:29:03.419Z,102382.88
2023-04-03T20:31:32.816Z,102376.44
2023-04-03T20:34:01.408Z,102384.97
2023-04-03T20:36:29.653Z,102383.78
2023-04-03T20:38:57.857Z,102378.25
2023-04-03T20:41:25.808Z,102387.66
2023-04-03T20:43:53.574Z,102380.41
2023-04-03T20:46:25.416Z,102378.53
2023-04-03T20:48:53.568Z,102384.47
2023-04-03T20:51:22.181Z,102377.25
2023-04-03T20:53:50.373Z,102371.03
2023-04-03T20:56:18.256Z,102372.66
2023-04-03T20:58:47.232Z,102369.03
2023-04-03T21:01:17.592Z,102377.63
2023-04-03T21:03:47.179Z,102374.81
2023-04-03T21:06:52.398Z,102367.59
2023-04-03T21:09:57.862Z,102360.34
2023-04-03T21:13:03.254Z,102362.81
2023-04-03T21:15:49.989Z,102355.56
2023-04-03T21:18:52.921Z,102364.16
2023-04-03T21:21:23.166Z,102353.28
2023-04-03T21:23:52.037Z,102353.81
2023-04-03T21:26:21.616Z,102361.50
2023-04-03T21:28:51.534Z,102357.59
2023-04-03T21:31:19.453Z,102360.91
2023-04-03T21:33:48.471Z,102351.84
2023-04-03T21:36:16.275Z,102350.69
2023-04-03T21:38:47.641Z,102352.19
2023-04-03T21:41:15.546Z,102351.84
2023-04-03T21:43:43.216Z,102342.81
2023-04-03T21:46:10.879Z,102348.63
2023-04-03T21:48:39.265Z,102344.81
2023-04-03T21:51:08.332Z,102345.47
2023-04-03T21:53:36.107Z,102338.22
2023-04-03T21:56:03.761Z,102337.94
2023-04-03T21:58:32.047Z,102341.97
2023-04-03T22:01:09.509Z,102340.78
2023-04-03T22:03:37.490Z,102329.13
2023-04-03T22:06:06.053Z,102334.16
2023-04-03T22:08:35.111Z,102331.94
2023-04-03T22:11:03.736Z,102335.97
2023-04-03T22:13:31.793Z,102334.06
2023-04-03T22:16:00.212Z,102325.00
2023-04-03T22:18:27.809Z,102332.66
2023-04-03T22:20:55.912Z,102325.44
2023-04-03T22:23:23.869Z,102328.78
2023-04-03T22:26:00.325Z,102320.63
2023-04-03T22:28:28.657Z,102324.66
2023-04-03T22:30:57.113Z,102321.81
2023-04-03T22:33:24.939Z,102318.09
2023-04-03T22:35:52.983Z,102321.41
2023-04-03T22:38:20.605Z,102321.94
2023-04-03T22:40:48.403Z,102318.88
2023-04-03T22:43:17.595Z,102324.03
2023-04-03T22:45:48.842Z,102331.56
2023-04-03T22:48:16.740Z,102326.94
2023-04-03T22:50:44.577Z,102328.44
2023-04-03T22:53:12.294Z,102340.50
2023-04-03T22:55:39.902Z,102341.22
2023-04-03T22:58:08.153Z,102333.06
2023-04-03T23:00:37.200Z,102325.91
2023-04-03T23:03:04.976Z,102336.28
2023-04-03T23:05:32.654Z,102327.31
2023-04-03T23:08:00.670Z,102330.53
2023-04-03T23:10:28.278Z,102322.47
2023-04-03T23:12:56.015Z,102325.81
2023-04-03T23:15:23.606Z,102327.41
2023-04-03T23:17:52.621Z,102338.53
2023-04-03T23:20:20.360Z,102329.69
2023-04-03T23:22:48.057Z,102331.31
2023-04-03T23:25:15.810Z,102333.81
2023-04-03T23:27:43.417Z,102336.19
2023-04-03T23:30:11.922Z,102333.47
2023-04-03T23:32:39.566Z,102333.28
2023-04-03T23:35:09.514Z,102332.16
2023-04-03T23:37:37.119Z,102331.03
2023-04-03T23:40:05.161Z,102323.72
2023-04-03T23:42:32.798Z,102337.53
2023-04-03T23:45:00.686Z,102332.22
2023-04-03T23:47:28.458Z,102321.56
2023-04-03T23:49:56.156Z,102326.78
2023-04-03T23:52:25.144Z,102327.50
2023-04-03T23:54:52.706Z,102329.09
2023-04-03T23:57:20.303Z,102326.25
2023-04-03T23:59:47.877Z,102325.38
